sensor_id;sensor_type;location;lat;lon;timestamp;temperature;humidity
1429;DHT22;708;51.442;7.016;2023-12-20T00:02:05;10.10;99.90
1429;DHT22;708;51.442;7.016;2023-12-20T00:04:31;10.20;99.90
1429;DHT22;708;51.442;7.016;2023-12-20T00:06:58;10.20;99.90
1429;DHT22;708;51.442;7.016;2023-12-20T00:09:25;10.10;99.90
1429;DHT22;708;51.442;7.016;2023-12-20T00:11:53;10.20;99.90
1429;DHT22;708;51.442;7.016;2023-12-20T00:14:20;10.20;99.90
1429;DHT22;708;51.442;7.016;2023-12-20T00:16:47;10.20;99.90
1429;DHT22;708;51.442;7.016;2023-12-20T00:19:13;10.20;99.90
1429;DHT22;708;51.442;7.016;2023-12-20T00:21:40;10.10;99.00
1429;DHT22;708;51.442;7.016;2023-12-20T00:24:07;10.10;97.80
1429;DHT22;708;51.442;7.016;2023-12-20T00:26:34;10.10;99.90
1429;DHT22;708;51.442;7.016;2023-12-20T00:29:01;10.10;99.90
1429;DHT22;708;51.442;7.016;2023-12-20T00:31:28;10.10;99.90
1429;DHT22;708;51.442;7.016;2023-12-20T00:33:55;10.10;99.90
1429;DHT22;708;51.442;7.016;2023-12-20T00:36:22;10.00;99.90
1429;DHT22;708;51.442;7.016;2023-12-20T00:38:48;10.00;99.90
1429;DHT22;708;51.442;7.016;2023-12-20T00:41:16;10.00;98.40
1429;DHT22;708;51.442;7.016;2023-12-20T00:43:43;10.00;92.10
1429;DHT22;708;51.442;7.016;2023-12-20T00:46:11;9.90;90.20
1429;DHT22;708;51.442;7.016;2023-12-20T00:48:38;9.90;94.20
1429;DHT22;708;51.442;7.016;2023-12-20T00:51:07;9.90;94.80
1429;DHT22;708;51.442;7.016;2023-12-20T00:53:34;9.90;94.30
1429;DHT22;708;51.442;7.016;2023-12-20T00:56:01;9.90;91.20
1429;DHT22;708;51.442;7.016;2023-12-20T00:58:28;9.90;85.50
1429;DHT22;708;51.442;7.016;2023-12-20T01:00:55;9.90;82.40
1429;DHT22;708;51.442;7.016;2023-12-20T01:03:24;9.90;80.50
1429;DHT22;708;51.442;7.016;2023-12-20T01:05:51;9.90;71.20
1429;DHT22;708;51.442;7.016;2023-12-20T01:08:18;9.90;56.40
1429;DHT22;708;51.442;7.016;2023-12-20T01:10:45;9.90;55.00
1429;DHT22;708;51.442;7.016;2023-12-20T01:13:13;9.90;50.40
1429;DHT22;708;51.442;7.016;2023-12-20T01:15:40;9.90;39.40
1429;DHT22;708;51.442;7.016;2023-12-20T01:18:07;9.90;29.10
1429;DHT22;708;51.442;7.016;2023-12-20T01:20:35;9.90;28.00
1429;DHT22;708;51.442;7.016;2023-12-20T01:23:02;9.80;25.70
1429;DHT22;708;51.442;7.016;2023-12-20T01:25:29;9.80;25.00
1429;DHT22;708;51.442;7.016;2023-12-20T01:27:55;9.80;23.50
1429;DHT22;708;51.442;7.016;2023-12-20T01:30:22;9.70;18.10
1429;DHT22;708;51.442;7.016;2023-12-20T01:32:50;9.70;8.70
1429;DHT22;708;51.442;7.016;2023-12-20T01:35:20;9.70;1.00
1429;DHT22;708;51.442;7.016;2023-12-20T01:37:48;9.60;4.10
1429;DHT22;708;51.442;7.016;2023-12-20T01:40:14;9.60;6.70
1429;DHT22;708;51.442;7.016;2023-12-20T01:42:42;9.60;7.10
1429;DHT22;708;51.442;7.016;2023-12-20T01:45:09;9.60;1.00
1429;DHT22;708;51.442;7.016;2023-12-20T01:47:36;9.60;1.00
1429;DHT22;708;51.442;7.016;2023-12-20T01:50:07;9.60;1.00
1429;DHT22;708;51.442;7.016;2023-12-20T01:52:34;9.60;1.00
1429;DHT22;708;51.442;7.016;2023-12-20T01:55:03;9.60;1.00
1429;DHT22;708;51.442;7.016;2023-12-20T01:57:36;9.60;7.80
1429;DHT22;708;51.442;7.016;2023-12-20T02:00:04;9.30;9.90
1429;DHT22;708;51.442;7.016;2023-12-20T02:02:31;9.50;11.50
1429;DHT22;708;51.442;7.016;2023-12-20T02:04:59;9.50;14.80
1429;DHT22;708;51.442;7.016;2023-12-20T02:07:36;9.50;17.90
1429;DHT22;708;51.442;7.016;2023-12-20T02:10:08;9.40;15.70
1429;DHT22;708;51.442;7.016;2023-12-20T02:12:37;9.20;20.90
1429;DHT22;708;51.442;7.016;2023-12-20T02:15:07;9.20;24.50
1429;DHT22;708;51.442;7.016;2023-12-20T02:17:34;9.00;32.60
1429;DHT22;708;51.442;7.016;2023-12-20T02:20:01;9.10;37.80
1429;DHT22;708;51.442;7.016;2023-12-20T02:22:29;9.10;33.00
1429;DHT22;708;51.442;7.016;2023-12-20T02:24:56;9.10;32.10
1429;DHT22;708;51.442;7.016;2023-12-20T02:27:23;9.10;29.20
1429;DHT22;708;51.442;7.016;2023-12-20T02:29:51;9.10;26.30
1429;DHT22;708;51.442;7.016;2023-12-20T02:32:24;9.10;27.20
1429;DHT22;708;51.442;7.016;2023-12-20T02:34:56;9.10;30.20
1429;DHT22;708;51.442;7.016;2023-12-20T02:37:23;9.20;28.20
1429;DHT22;708;51.442;7.016;2023-12-20T02:39:51;9.20;23.20
1429;DHT22;708;51.442;7.016;2023-12-20T02:42:20;9.20;19.90
1429;DHT22;708;51.442;7.016;2023-12-20T02:44:54;9.30;21.60
1429;DHT22;708;51.442;7.016;2023-12-20T02:47:21;9.30;20.50
1429;DHT22;708;51.442;7.016;2023-12-20T02:49:57;9.30;19.40
1429;DHT22;708;51.442;7.016;2023-12-20T02:52:28;9.40;14.90
1429;DHT22;708;51.442;7.016;2023-12-20T02:54:57;9.30;8.60
1429;DHT22;708;51.442;7.016;2023-12-20T02:57:26;9.30;5.50
1429;DHT22;708;51.442;7.016;2023-12-20T02:59:53;9.20;5.70
1429;DHT22;708;51.442;7.016;2023-12-20T03:02:20;9.20;10.10
1429;DHT22;708;51.442;7.016;2023-12-20T03:04:46;9.20;10.30
1429;DHT22;708;51.442;7.016;2023-12-20T03:07:20;9.20;13.40
1429;DHT22;708;51.442;7.016;2023-12-20T03:09:47;9.20;11.90
1429;DHT22;708;51.442;7.016;2023-12-20T03:12:20;9.10;13.40
1429;DHT22;708;51.442;7.016;2023-12-20T03:14:51;9.10;14.20
1429;DHT22;708;51.442;7.016;2023-12-20T03:17:30;9.00;14.70
1429;DHT22;708;51.442;7.016;2023-12-20T03:19:57;9.10;12.10
1429;DHT22;708;51.442;7.016;2023-12-20T03:22:23;9.10;12.40
1429;DHT22;708;51.442;7.016;2023-12-20T03:24:50;9.00;9.80
1429;DHT22;708;51.442;7.016;2023-12-20T03:27:21;8.90;11.70
1429;DHT22;708;51.442;7.016;2023-12-20T03:29:48;8.90;14.50
1429;DHT22;708;51.442;7.016;2023-12-20T03:32:26;8.90;16.10
1429;DHT22;708;51.442;7.016;2023-12-20T03:34:53;8.90;14.60
1429;DHT22;708;51.442;7.016;2023-12-20T03:37:19;8.90;17.70
1429;DHT22;708;51.442;7.016;2023-12-20T03:39:46;8.80;17.30
1429;DHT22;708;51.442;7.016;2023-12-20T03:42:15;8.80;16.00
1429;DHT22;708;51.442;7.016;2023-12-20T03:44:44;8.70;16.80
1429;DHT22;708;51.442;7.016;2023-12-20T03:47:11;8.60;23.40
1429;DHT22;708;51.442;7.016;2023-12-20T03:49:37;8.60;29.90
1429;DHT22;708;51.442;7.016;2023-12-20T03:52:05;8.50;36.80
1429;DHT22;708;51.442;7.016;2023-12-20T03:54:31;8.50;39.20
1429;DHT22;708;51.442;7.016;2023-12-20T03:56:58;8.60;34.30
1429;DHT22;708;51.442;7.016;2023-12-20T03:59:25;8.50;33.40
1429;DHT22;708;51.442;7.016;2023-12-20T04:01:53;8.40;37.60
1429;DHT22;708;51.442;7.016;2023-12-20T04:04:20;8.40;43.40
1429;DHT22;708;51.442;7.016;2023-12-20T04:06:46;8.30;49.20
1429;DHT22;708;51.442;7.016;2023-12-20T04:09:13;8.30;51.40
1429;DHT22;708;51.442;7.016;2023-12-20T04:11:40;8.20;54.90
1429;DHT22;708;51.442;7.016;2023-12-20T04:14:07;8.20;56.70
1429;DHT22;708;51.442;7.016;2023-12-20T04:19:03;8.10;62.10
1429;DHT22;708;51.442;7.016;2023-12-20T04:21:29;8.10;73.70
1429;DHT22;708;51.442;7.016;2023-12-20T04:23:56;8.00;79.60
1429;DHT22;708;51.442;7.016;2023-12-20T04:26:23;8.00;81.10
1429;DHT22;708;51.442;7.016;2023-12-20T04:28:50;8.00;86.70
1429;DHT22;708;51.442;7.016;2023-12-20T04:31:16;8.10;88.00
1429;DHT22;708;51.442;7.016;2023-12-20T04:33:43;8.10;79.10
1429;DHT22;708;51.442;7.016;2023-12-20T04:36:12;8.10;81.10
1429;DHT22;708;51.442;7.016;2023-12-20T04:38:39;8.10;70.50
1429;DHT22;708;51.442;7.016;2023-12-20T04:41:06;8.10;68.30
1429;DHT22;708;51.442;7.016;2023-12-20T04:43:35;8.10;66.40
1429;DHT22;708;51.442;7.016;2023-12-20T04:46:03;8.20;65.20
1429;DHT22;708;51.442;7.016;2023-12-20T04:48:30;8.20;55.40
1429;DHT22;708;51.442;7.016;2023-12-20T04:50:56;8.30;53.50
1429;DHT22;708;51.442;7.016;2023-12-20T04:53:24;8.30;51.10
1429;DHT22;708;51.442;7.016;2023-12-20T04:55:51;8.40;46.80
1429;DHT22;708;51.442;7.016;2023-12-20T04:58:18;8.30;37.20
1429;DHT22;708;51.442;7.016;2023-12-20T05:00:45;8.30;36.30
1429;DHT22;708;51.442;7.016;2023-12-20T05:03:12;8.40;36.40
1429;DHT22;708;51.442;7.016;2023-12-20T05:05:39;8.40;34.80
1429;DHT22;708;51.442;7.016;2023-12-20T05:08:06;8.50;31.20
1429;DHT22;708;51.442;7.016;2023-12-20T05:10:34;8.50;25.20
1429;DHT22;708;51.442;7.016;2023-12-20T05:13:02;8.50;23.00
1429;DHT22;708;51.442;7.016;2023-12-20T05:15:29;8.50;21.80
1429;DHT22;708;51.442;7.016;2023-12-20T05:17:55;8.40;16.90
1429;DHT22;708;51.442;7.016;2023-12-20T05:20:22;8.30;22.10
1429;DHT22;708;51.442;7.016;2023-12-20T05:22:49;8.30;22.70
1429;DHT22;708;51.442;7.016;2023-12-20T05:25:16;8.30;29.40
1429;DHT22;708;51.442;7.016;2023-12-20T05:27:44;8.40;27.60
1429;DHT22;708;51.442;7.016;2023-12-20T05:30:11;8.40;25.60
1429;DHT22;708;51.442;7.016;2023-12-20T05:32:39;8.30;28.70
1429;DHT22;708;51.442;7.016;2023-12-20T05:35:06;8.40;30.30
1429;DHT22;708;51.442;7.016;2023-12-20T05:37:33;8.50;26.60
1429;DHT22;708;51.442;7.016;2023-12-20T05:40:02;8.40;23.40
1429;DHT22;708;51.442;7.016;2023-12-20T05:42:29;8.50;26.20
1429;DHT22;708;51.442;7.016;2023-12-20T05:44:57;8.50;20.60
1429;DHT22;708;51.442;7.016;2023-12-20T05:47:24;8.50;13.60
1429;DHT22;708;51.442;7.016;2023-12-20T05:49:51;8.50;13.10
1429;DHT22;708;51.442;7.016;2023-12-20T05:52:17;8.60;15.30
1429;DHT22;708;51.442;7.016;2023-12-20T05:54:45;8.60;14.20
1429;DHT22;708;51.442;7.016;2023-12-20T05:57:11;8.60;15.40
1429;DHT22;708;51.442;7.016;2023-12-20T05:59:40;8.60;17.30
1429;DHT22;708;51.442;7.016;2023-12-20T06:02:15;8.70;11.80
1429;DHT22;708;51.442;7.016;2023-12-20T06:04:44;8.70;12.40
1429;DHT22;708;51.442;7.016;2023-12-20T06:07:12;8.70;8.90
1429;DHT22;708;51.442;7.016;2023-12-20T06:09:39;8.80;10.80
1429;DHT22;708;51.442;7.016;2023-12-20T06:12:06;8.80;5.30
1429;DHT22;708;51.442;7.016;2023-12-20T06:14:33;8.80;1.00
1429;DHT22;708;51.442;7.016;2023-12-20T06:17:00;8.80;1.00
1429;DHT22;708;51.442;7.016;2023-12-20T06:19:29;8.80;1.70
1429;DHT22;708;51.442;7.016;2023-12-20T06:21:55;8.90;1.00
1429;DHT22;708;51.442;7.016;2023-12-20T06:24:22;8.90;1.00
1429;DHT22;708;51.442;7.016;2023-12-20T06:26:53;8.90;1.00
1429;DHT22;708;51.442;7.016;2023-12-20T06:29:20;8.80;1.00
1429;DHT22;708;51.442;7.016;2023-12-20T06:31:46;8.80;1.00
1429;DHT22;708;51.442;7.016;2023-12-20T06:34:13;8.80;1.00
1429;DHT22;708;51.442;7.016;2023-12-20T06:36:41;8.70;1.00
1429;DHT22;708;51.442;7.016;2023-12-20T06:39:08;8.70;1.00
1429;DHT22;708;51.442;7.016;2023-12-20T06:41:35;8.70;1.00
1429;DHT22;708;51.442;7.016;2023-12-20T06:44:02;8.70;3.20
1429;DHT22;708;51.442;7.016;2023-12-20T06:46:29;8.70;4.50
1429;DHT22;708;51.442;7.016;2023-12-20T06:48:55;8.70;5.50
1429;DHT22;708;51.442;7.016;2023-12-20T06:51:22;8.70;1.80
1429;DHT22;708;51.442;7.016;2023-12-20T06:53:52;8.70;1.00
1429;DHT22;708;51.442;7.016;2023-12-20T06:56:19;8.80;1.00
1429;DHT22;708;51.442;7.016;2023-12-20T06:58:46;8.80;1.00
1429;DHT22;708;51.442;7.016;2023-12-20T07:01:13;8.70;1.00
1429;DHT22;708;51.442;7.016;2023-12-20T07:03:40;8.80;1.00
1429;DHT22;708;51.442;7.016;2023-12-20T07:06:07;8.80;1.00
1429;DHT22;708;51.442;7.016;2023-12-20T07:08:34;8.80;1.00
1429;DHT22;708;51.442;7.016;2023-12-20T07:11:02;8.80;1.00
1429;DHT22;708;51.442;7.016;2023-12-20T07:13:30;8.80;1.00
1429;DHT22;708;51.442;7.016;2023-12-20T07:15:56;8.80;1.00
1429;DHT22;708;51.442;7.016;2023-12-20T07:18:23;8.80;1.00
1429;DHT22;708;51.442;7.016;2023-12-20T07:20:50;8.90;1.00
1429;DHT22;708;51.442;7.016;2023-12-20T07:23:17;8.80;1.00
1429;DHT22;708;51.442;7.016;2023-12-20T07:25:48;8.80;1.00
1429;DHT22;708;51.442;7.016;2023-12-20T07:28:17;8.90;1.00
1429;DHT22;708;51.442;7.016;2023-12-20T07:30:44;8.90;1.00
1429;DHT22;708;51.442;7.016;2023-12-20T07:33:11;8.90;1.00
1429;DHT22;708;51.442;7.016;2023-12-20T07:35:38;9.00;1.00
1429;DHT22;708;51.442;7.016;2023-12-20T07:38:05;9.00;1.00
1429;DHT22;708;51.442;7.016;2023-12-20T07:40:32;9.00;1.00
1429;DHT22;708;51.442;7.016;2023-12-20T07:42:59;9.00;1.00
1429;DHT22;708;51.442;7.016;2023-12-20T07:45:27;9.00;1.00
1429;DHT22;708;51.442;7.016;2023-12-20T07:47:54;9.00;1.00
1429;DHT22;708;51.442;7.016;2023-12-20T07:50:21;9.10;1.00
1429;DHT22;708;51.442;7.016;2023-12-20T07:52:47;9.10;1.00
1429;DHT22;708;51.442;7.016;2023-12-20T07:55:14;9.10;1.00
1429;DHT22;708;51.442;7.016;2023-12-20T07:57:41;9.10;1.00
1429;DHT22;708;51.442;7.016;2023-12-20T08:00:09;9.10;1.00
1429;DHT22;708;51.442;7.016;2023-12-20T08:02:37;9.10;1.00
1429;DHT22;708;51.442;7.016;2023-12-20T08:05:04;9.20;1.00
1429;DHT22;708;51.442;7.016;2023-12-20T08:07:31;9.20;1.00
1429;DHT22;708;51.442;7.016;2023-12-20T08:09:59;9.20;1.00
1429;DHT22;708;51.442;7.016;2023-12-20T08:12:25;9.30;1.00
1429;DHT22;708;51.442;7.016;2023-12-20T08:14:53;9.30;1.00
1429;DHT22;708;51.442;7.016;2023-12-20T08:17:20;9.30;1.00
1429;DHT22;708;51.442;7.016;2023-12-20T08:19:50;9.30;1.00
1429;DHT22;708;51.442;7.016;2023-12-20T08:22:17;9.30;1.00
1429;DHT22;708;51.442;7.016;2023-12-20T08:24:44;9.40;1.00
1429;DHT22;708;51.442;7.016;2023-12-20T08:27:10;9.40;1.00
1429;DHT22;708;51.442;7.016;2023-12-20T08:29:37;9.40;1.00
1429;DHT22;708;51.442;7.016;2023-12-20T08:32:04;9.30;1.00
1429;DHT22;708;51.442;7.016;2023-12-20T08:34:31;9.30;1.00
1429;DHT22;708;51.442;7.016;2023-12-20T08:36:59;9.30;1.00
1429;DHT22;708;51.442;7.016;2023-12-20T08:39:26;9.40;1.00
1429;DHT22;708;51.442;7.016;2023-12-20T08:41:53;9.40;1.00
1429;DHT22;708;51.442;7.016;2023-12-20T08:44:20;9.40;1.00
1429;DHT22;708;51.442;7.016;2023-12-20T08:46:47;9.40;1.00
1429;DHT22;708;51.442;7.016;2023-12-20T08:49:14;9.50;1.00
1429;DHT22;708;51.442;7.016;2023-12-20T08:51:41;9.50;1.00
1429;DHT22;708;51.442;7.016;2023-12-20T08:54:09;9.50;1.00
1429;DHT22;708;51.442;7.016;2023-12-20T08:56:36;9.50;1.00
1429;DHT22;708;51.442;7.016;2023-12-20T08:59:02;9.50;1.00
1429;DHT22;708;51.442;7.016;2023-12-20T09:01:29;9.40;1.00
1429;DHT22;708;51.442;7.016;2023-12-20T09:03:56;9.40;1.00
1429;DHT22;708;51.442;7.016;2023-12-20T09:06:23;9.40;1.00
1429;DHT22;708;51.442;7.016;2023-12-20T09:08:51;9.40;1.00
1429;DHT22;708;51.442;7.016;2023-12-20T09:11:19;9.40;1.00
1429;DHT22;708;51.442;7.016;2023-12-20T09:13:46;9.40;1.00
1429;DHT22;708;51.442;7.016;2023-12-20T09:16:12;9.50;1.00
1429;DHT22;708;51.442;7.016;2023-12-20T09:18:41;9.60;1.00
1429;DHT22;708;51.442;7.016;2023-12-20T09:21:08;9.60;1.00
1429;DHT22;708;51.442;7.016;2023-12-20T09:23:34;9.60;1.00
1429;DHT22;708;51.442;7.016;2023-12-20T09:26:02;9.60;1.00
1429;DHT22;708;51.442;7.016;2023-12-20T09:28:30;9.70;1.00
1429;DHT22;708;51.442;7.016;2023-12-20T09:31:03;9.70;1.00
1429;DHT22;708;51.442;7.016;2023-12-20T09:33:30;9.70;1.00
1429;DHT22;708;51.442;7.016;2023-12-20T09:35:57;9.60;1.00
1429;DHT22;708;51.442;7.016;2023-12-20T09:38:24;9.60;1.00
1429;DHT22;708;51.442;7.016;2023-12-20T09:40:51;9.60;1.00
1429;DHT22;708;51.442;7.016;2023-12-20T09:43:20;9.70;1.00
1429;DHT22;708;51.442;7.016;2023-12-20T09:45:53;9.70;1.00
1429;DHT22;708;51.442;7.016;2023-12-20T09:48:20;9.70;1.00
1429;DHT22;708;51.442;7.016;2023-12-20T09:50:47;9.80;1.00
1429;DHT22;708;51.442;7.016;2023-12-20T09:53:15;9.90;1.00
1429;DHT22;708;51.442;7.016;2023-12-20T09:55:44;9.90;1.00
1429;DHT22;708;51.442;7.016;2023-12-20T09:58:11;9.90;1.00
1429;DHT22;708;51.442;7.016;2023-12-20T10:00:37;9.90;1.00
1429;DHT22;708;51.442;7.016;2023-12-20T10:03:06;9.90;1.00
1429;DHT22;708;51.442;7.016;2023-12-20T10:05:34;9.80;1.00
1429;DHT22;708;51.442;7.016;2023-12-20T10:08:01;9.80;1.00
1429;DHT22;708;51.442;7.016;2023-12-20T10:10:28;9.80;1.00
1429;DHT22;708;51.442;7.016;2023-12-20T10:13:02;9.80;1.00
1429;DHT22;708;51.442;7.016;2023-12-20T10:15:29;9.80;1.00
1429;DHT22;708;51.442;7.016;2023-12-20T10:17:57;9.90;1.00
1429;DHT22;708;51.442;7.016;2023-12-20T10:20:25;9.90;1.00
1429;DHT22;708;51.442;7.016;2023-12-20T10:22:54;9.90;1.00
1429;DHT22;708;51.442;7.016;2023-12-20T10:25:21;9.80;1.00
1429;DHT22;708;51.442;7.016;2023-12-20T10:27:50;9.80;1.00
1429;DHT22;708;51.442;7.016;2023-12-20T10:30:16;9.80;1.00
1429;DHT22;708;51.442;7.016;2023-12-20T10:32:43;9.80;1.00
1429;DHT22;708;51.442;7.016;2023-12-20T10:35:10;9.90;1.00
1429;DHT22;708;51.442;7.016;2023-12-20T10:37:38;9.90;1.00
1429;DHT22;708;51.442;7.016;2023-12-20T10:40:06;9.90;1.00
1429;DHT22;708;51.442;7.016;2023-12-20T10:42:33;10.00;1.00
1429;DHT22;708;51.442;7.016;2023-12-20T10:45:01;10.00;1.00
1429;DHT22;708;51.442;7.016;2023-12-20T10:47:30;10.10;1.00
1429;DHT22;708;51.442;7.016;2023-12-20T10:49:59;10.20;1.00
1429;DHT22;708;51.442;7.016;2023-12-20T10:52:28;10.20;1.00
1429;DHT22;708;51.442;7.016;2023-12-20T10:54:57;10.20;1.00
1429;DHT22;708;51.442;7.016;2023-12-20T10:57:27;10.20;1.00
1429;DHT22;708;51.442;7.016;2023-12-20T10:59:54;10.10;1.00
1429;DHT22;708;51.442;7.016;2023-12-20T11:02:22;10.10;1.00
1429;DHT22;708;51.442;7.016;2023-12-20T11:04:55;10.00;1.00
1429;DHT22;708;51.442;7.016;2023-12-20T11:07:25;10.00;1.00
1429;DHT22;708;51.442;7.016;2023-12-20T11:09:59;10.00;1.00
1429;DHT22;708;51.442;7.016;2023-12-20T11:12:35;10.00;1.00
1429;DHT22;708;51.442;7.016;2023-12-20T11:15:06;10.00;1.00
1429;DHT22;708;51.442;7.016;2023-12-20T11:17:33;10.00;1.00
1429;DHT22;708;51.442;7.016;2023-12-20T11:20:07;10.00;1.00
1429;DHT22;708;51.442;7.016;2023-12-20T11:22:36;10.10;1.00
1429;DHT22;708;51.442;7.016;2023-12-20T11:25:06;10.10;1.00
1429;DHT22;708;51.442;7.016;2023-12-20T11:27:33;10.10;1.00
1429;DHT22;708;51.442;7.016;2023-12-20T11:30:02;10.10;1.00
1429;DHT22;708;51.442;7.016;2023-12-20T11:32:33;10.10;1.00
1429;DHT22;708;51.442;7.016;2023-12-20T11:35:16;10.20;1.00
1429;DHT22;708;51.442;7.016;2023-12-20T11:37:44;10.20;1.00
1429;DHT22;708;51.442;7.016;2023-12-20T11:40:15;10.20;1.00
1429;DHT22;708;51.442;7.016;2023-12-20T11:42:43;10.20;1.00
1429;DHT22;708;51.442;7.016;2023-12-20T11:45:11;10.20;1.00
1429;DHT22;708;51.442;7.016;2023-12-20T11:47:40;10.20;1.00
1429;DHT22;708;51.442;7.016;2023-12-20T11:50:07;10.20;1.00
1429;DHT22;708;51.442;7.016;2023-12-20T11:52:35;10.20;1.00
1429;DHT22;708;51.442;7.016;2023-12-20T11:55:02;10.20;1.00
1429;DHT22;708;51.442;7.016;2023-12-20T11:57:30;10.20;1.00
1429;DHT22;708;51.442;7.016;2023-12-20T11:59:57;10.20;1.00
1429;DHT22;708;51.442;7.016;2023-12-20T12:02:24;10.20;1.00
1429;DHT22;708;51.442;7.016;2023-12-20T12:04:51;10.20;1.00
1429;DHT22;708;51.442;7.016;2023-12-20T12:07:17;10.10;1.00
1429;DHT22;708;51.442;7.016;2023-12-20T12:09:46;10.10;1.00
1429;DHT22;708;51.442;7.016;2023-12-20T12:12:13;10.10;1.00
1429;DHT22;708;51.442;7.016;2023-12-20T12:14:41;10.10;1.00
1429;DHT22;708;51.442;7.016;2023-12-20T12:17:10;10.10;1.00
1429;DHT22;708;51.442;7.016;2023-12-20T12:19:38;10.20;1.00
1429;DHT22;708;51.442;7.016;2023-12-20T12:22:05;10.20;1.00
1429;DHT22;708;51.442;7.016;2023-12-20T12:24:34;10.30;1.00
1429;DHT22;708;51.442;7.016;2023-12-20T12:27:00;10.40;1.00
1429;DHT22;708;51.442;7.016;2023-12-20T12:29:27;10.50;1.00
1429;DHT22;708;51.442;7.016;2023-12-20T12:31:55;10.50;1.00
1429;DHT22;708;51.442;7.016;2023-12-20T12:34:23;10.50;1.00
1429;DHT22;708;51.442;7.016;2023-12-20T12:36:51;10.50;1.00
1429;DHT22;708;51.442;7.016;2023-12-20T12:39:19;10.50;1.00
1429;DHT22;708;51.442;7.016;2023-12-20T12:41:47;10.60;1.00
1429;DHT22;708;51.442;7.016;2023-12-20T12:44:14;10.60;1.00
1429;DHT22;708;51.442;7.016;2023-12-20T12:46:40;10.50;1.00
1429;DHT22;708;51.442;7.016;2023-12-20T12:49:08;10.50;1.00
1429;DHT22;708;51.442;7.016;2023-12-20T12:51:35;10.50;1.00
1429;DHT22;708;51.442;7.016;2023-12-20T12:54:02;10.60;1.00
1429;DHT22;708;51.442;7.016;2023-12-20T12:56:29;10.70;1.00
1429;DHT22;708;51.442;7.016;2023-12-20T12:58:56;10.70;1.00
1429;DHT22;708;51.442;7.016;2023-12-20T13:01:23;10.70;1.00
1429;DHT22;708;51.442;7.016;2023-12-20T13:03:50;10.80;1.00
1429;DHT22;708;51.442;7.016;2023-12-20T13:06:18;10.80;1.00
1429;DHT22;708;51.442;7.016;2023-12-20T13:08:45;10.80;1.00
1429;DHT22;708;51.442;7.016;2023-12-20T13:11:11;10.80;1.00
1429;DHT22;708;51.442;7.016;2023-12-20T13:13:38;10.80;1.00
1429;DHT22;708;51.442;7.016;2023-12-20T13:16:06;10.80;1.00
1429;DHT22;708;51.442;7.016;2023-12-20T13:18:32;10.70;1.00
1429;DHT22;708;51.442;7.016;2023-12-20T13:20:59;10.60;1.00
1429;DHT22;708;51.442;7.016;2023-12-20T13:23:28;10.60;1.00
1429;DHT22;708;51.442;7.016;2023-12-20T13:25:54;10.50;1.00
1429;DHT22;708;51.442;7.016;2023-12-20T13:28:21;10.40;1.00
1429;DHT22;708;51.442;7.016;2023-12-20T13:30:48;10.40;1.00
1429;DHT22;708;51.442;7.016;2023-12-20T13:33:15;10.30;1.00
1429;DHT22;708;51.442;7.016;2023-12-20T13:35:41;10.30;1.00
1429;DHT22;708;51.442;7.016;2023-12-20T13:38:08;10.20;1.00
1429;DHT22;708;51.442;7.016;2023-12-20T13:40:36;10.10;1.00
1429;DHT22;708;51.442;7.016;2023-12-20T13:43:03;10.00;1.00
1429;DHT22;708;51.442;7.016;2023-12-20T13:45:31;9.90;1.00
1429;DHT22;708;51.442;7.016;2023-12-20T13:47:58;9.80;1.00
1429;DHT22;708;51.442;7.016;2023-12-20T13:50:33;9.80;1.00
1429;DHT22;708;51.442;7.016;2023-12-20T13:52:59;9.80;1.00
1429;DHT22;708;51.442;7.016;2023-12-20T13:55:26;9.70;3.00
1429;DHT22;708;51.442;7.016;2023-12-20T13:57:55;9.70;3.10
1429;DHT22;708;51.442;7.016;2023-12-20T14:00:22;9.70;1.20
1429;DHT22;708;51.442;7.016;2023-12-20T14:02:48;9.70;5.20
1429;DHT22;708;51.442;7.016;2023-12-20T14:05:18;9.70;7.00
1429;DHT22;708;51.442;7.016;2023-12-20T14:07:45;9.70;12.70
1429;DHT22;708;51.442;7.016;2023-12-20T14:10:12;9.70;12.80
1429;DHT22;708;51.442;7.016;2023-12-20T14:12:39;9.70;8.50
1429;DHT22;708;51.442;7.016;2023-12-20T14:15:08;9.70;8.40
1429;DHT22;708;51.442;7.016;2023-12-20T14:17:36;9.70;10.50
1429;DHT22;708;51.442;7.016;2023-12-20T14:20:04;9.70;13.20
1429;DHT22;708;51.442;7.016;2023-12-20T14:22:31;9.70;12.20
1429;DHT22;708;51.442;7.016;2023-12-20T14:24:58;9.70;14.00
1429;DHT22;708;51.442;7.016;2023-12-20T14:27:26;9.60;25.30
1429;DHT22;708;51.442;7.016;2023-12-20T14:29:53;9.50;31.70
1429;DHT22;708;51.442;7.016;2023-12-20T14:32:21;9.50;42.50
1429;DHT22;708;51.442;7.016;2023-12-20T14:34:48;9.50;43.60
1429;DHT22;708;51.442;7.016;2023-12-20T14:37:15;9.50;45.80
1429;DHT22;708;51.442;7.016;2023-12-20T14:39:43;9.40;51.00
1429;DHT22;708;51.442;7.016;2023-12-20T14:42:09;9.50;55.50
1429;DHT22;708;51.442;7.016;2023-12-20T14:44:39;9.50;53.30
1429;DHT22;708;51.442;7.016;2023-12-20T14:47:06;9.60;43.80
1429;DHT22;708;51.442;7.016;2023-12-20T14:49:34;9.60;40.50
1429;DHT22;708;51.442;7.016;2023-12-20T14:52:01;9.60;42.00
1429;DHT22;708;51.442;7.016;2023-12-20T14:54:28;9.60;35.30
1429;DHT22;708;51.442;7.016;2023-12-20T14:56:55;9.60;30.30
1429;DHT22;708;51.442;7.016;2023-12-20T14:59:22;9.60;30.60
1429;DHT22;708;51.442;7.016;2023-12-20T15:01:51;9.60;27.30
1429;DHT22;708;51.442;7.016;2023-12-20T15:04:18;9.60;27.60
1429;DHT22;708;51.442;7.016;2023-12-20T15:06:52;9.60;35.00
1429;DHT22;708;51.442;7.016;2023-12-20T15:09:19;9.70;32.40
1429;DHT22;708;51.442;7.016;2023-12-20T15:11:46;9.60;32.70
1429;DHT22;708;51.442;7.016;2023-12-20T15:14:12;9.70;31.00
1429;DHT22;708;51.442;7.016;2023-12-20T15:16:43;9.70;22.40
1429;DHT22;708;51.442;7.016;2023-12-20T15:19:10;9.80;19.90
1429;DHT22;708;51.442;7.016;2023-12-20T15:21:37;9.80;21.10
1429;DHT22;708;51.442;7.016;2023-12-20T15:24:08;9.80;17.90
1429;DHT22;708;51.442;7.016;2023-12-20T15:26:40;9.90;18.20
1429;DHT22;708;51.442;7.016;2023-12-20T15:29:07;9.90;14.50
1429;DHT22;708;51.442;7.016;2023-12-20T15:31:35;9.90;14.30
1429;DHT22;708;51.442;7.016;2023-12-20T15:34:02;9.90;13.70
1429;DHT22;708;51.442;7.016;2023-12-20T15:36:29;9.90;9.00
1429;DHT22;708;51.442;7.016;2023-12-20T15:38:56;9.90;8.60
1429;DHT22;708;51.442;7.016;2023-12-20T15:41:24;10.00;3.70
1429;DHT22;708;51.442;7.016;2023-12-20T15:43:51;9.90;4.00
1429;DHT22;708;51.442;7.016;2023-12-20T15:46:18;9.90;1.00
1429;DHT22;708;51.442;7.016;2023-12-20T15:48:45;9.90;1.90
1429;DHT22;708;51.442;7.016;2023-12-20T15:51:11;9.90;3.20
1429;DHT22;708;51.442;7.016;2023-12-20T15:53:38;9.90;1.00
1429;DHT22;708;51.442;7.016;2023-12-20T15:56:06;9.90;1.00
1429;DHT22;708;51.442;7.016;2023-12-20T15:58:34;9.90;1.00
1429;DHT22;708;51.442;7.016;2023-12-20T16:01:01;10.00;1.00
1429;DHT22;708;51.442;7.016;2023-12-20T16:03:28;10.00;1.00
1429;DHT22;708;51.442;7.016;2023-12-20T16:05:54;9.90;1.00
1429;DHT22;708;51.442;7.016;2023-12-20T16:08:21;9.90;1.00
1429;DHT22;708;51.442;7.016;2023-12-20T16:10:48;10.00;1.00
1429;DHT22;708;51.442;7.016;2023-12-20T16:13:15;10.00;1.00
1429;DHT22;708;51.442;7.016;2023-12-20T16:15:43;10.00;1.00
1429;DHT22;708;51.442;7.016;2023-12-20T16:18:10;10.00;1.00
1429;DHT22;708;51.442;7.016;2023-12-20T16:20:37;10.00;1.00
1429;DHT22;708;51.442;7.016;2023-12-20T16:23:04;9.90;1.00
1429;DHT22;708;51.442;7.016;2023-12-20T16:25:31;9.90;1.00
1429;DHT22;708;51.442;7.016;2023-12-20T16:27:58;9.90;1.00
1429;DHT22;708;51.442;7.016;2023-12-20T16:30:25;9.90;1.00
1429;DHT22;708;51.442;7.016;2023-12-20T16:32:53;10.00;1.00
1429;DHT22;708;51.442;7.016;2023-12-20T16:35:19;10.00;1.00
1429;DHT22;708;51.442;7.016;2023-12-20T16:37:47;10.00;1.00
1429;DHT22;708;51.442;7.016;2023-12-20T16:40:14;10.10;1.00
1429;DHT22;708;51.442;7.016;2023-12-20T16:42:50;10.10;1.00
1429;DHT22;708;51.442;7.016;2023-12-20T16:45:20;10.20;1.00